createdAt,value
2023-02-11T00:00:56.488Z,7.90
2023-02-11T00:03:26.340Z,8.07
2023-02-11T00:06:08.707Z,8.10
2023-02-11T00:08:39.665Z,8.60
2023-02-11T00:11:14.500Z,8.15
2023-02-11T00:13:45.452Z,8.82
2023-02-11T00:16:21.376Z,8.13
2023-02-11T00:18:49.163Z,8.07
2023-02-11T00:21:24.742Z,8.07
2023-02-11T00:23:58.726Z,7.87
2023-02-11T00:26:32.831Z,8.50
2023-02-11T00:29:00.777Z,8.50
2023-02-11T00:31:33.661Z,8.20
2023-02-11T00:34:00.783Z,8.20
2023-02-11T00:36:36.526Z,7.97
2023-02-11T00:39:10.366Z,8.20
2023-02-11T00:41:37.699Z,7.97
2023-02-11T00:44:05.195Z,7.28
2023-02-11T00:46:35.560Z,8.23
2023-02-11T00:49:06.156Z,8.02
2023-02-11T00:51:33.259Z,8.27
2023-02-11T00:54:01.259Z,8.32
2023-02-11T00:56:28.409Z,7.75
2023-02-11T00:58:55.674Z,7.95
2023-02-11T01:01:22.778Z,8.35
2023-02-11T01:03:53.194Z,8.27
2023-02-11T01:06:23.949Z,7.65
2023-02-11T01:08:51.000Z,7.43
2023-02-11T01:11:22.600Z,7.82
2023-02-11T01:13:50.979Z,7.90
2023-02-11T01:16:22.784Z,7.40
2023-02-11T01:18:50.300Z,7.65
2023-02-11T01:21:18.109Z,7.57
2023-02-11T01:24:05.203Z,8.38
2023-02-11T01:26:32.365Z,7.25
2023-02-11T01:29:36.877Z,7.20
2023-02-11T01:32:09.429Z,7.80
2023-02-11T01:34:36.843Z,7.47
2023-02-11T01:37:08.001Z,7.85
2023-02-11T01:39:40.767Z,7.25
2023-02-11T01:42:13.296Z,7.95
2023-02-11T01:44:43.640Z,7.80
2023-02-11T01:47:16.414Z,7.57
2023-02-11T01:50:07.714Z,7.25
2023-02-11T01:52:42.154Z,8.07
2023-02-11T01:55:13.393Z,7.28
2023-02-11T01:58:05.541Z,7.93
2023-02-11T02:00:40.150Z,7.37
2023-02-11T02:03:18.148Z,8.10
2023-02-11T02:06:06.444Z,7.68
2023-02-11T02:08:59.791Z,7.37
2023-02-11T02:11:29.980Z,7.20
2023-02-11T02:14:04.304Z,7.10
2023-02-11T02:16:35.425Z,7.78
2023-02-11T02:19:27.533Z,7.78
2023-02-11T02:22:19.848Z,7.85
2023-02-11T02:25:08.121Z,7.90
2023-02-11T02:34:31.639Z,7.28
2023-02-11T02:37:40.641Z,7.40
2023-02-11T02:40:41.404Z,7.35
2023-02-11T02:43:46.804Z,7.68
2023-02-11T02:46:54.694Z,8.02
2023-02-11T02:49:29.723Z,7.60
2023-02-11T02:52:07.080Z,7.40
2023-02-11T02:58:33.234Z,7.10
2023-02-11T03:01:54.924Z,7.78
2023-02-11T03:10:56.953Z,7.80
2023-02-11T03:13:32.622Z,7.87
2023-02-11T03:16:07.388Z,7.43
2023-02-11T03:18:43.433Z,8.45
2023-02-11T03:21:18.269Z,7.22
2023-02-11T03:27:44.795Z,7.47
2023-02-11T03:30:35.733Z,7.35
2023-02-11T03:33:40.378Z,8.00
2023-02-11T03:40:03.058Z,7.85
2023-02-11T03:42:39.133Z,7.62
2023-02-11T03:45:11.148Z,7.47
2023-02-11T03:54:36.805Z,7.12
2023-02-11T03:57:07.991Z,7.62
2023-02-11T04:00:01.414Z,7.80
2023-02-11T04:02:32.517Z,7.70
2023-02-11T04:08:34.917Z,7.28
2023-02-11T04:11:24.136Z,7.82
2023-02-11T04:14:13.976Z,7.62
2023-02-11T04:26:33.829Z,7.43
2023-02-11T04:32:22.763Z,7.37
2023-02-11T04:34:55.491Z,7.53
2023-02-11T04:37:26.437Z,7.18
2023-02-11T04:40:08.710Z,7.30
2023-02-11T04:45:57.689Z,8.40
2023-02-11T04:48:31.471Z,7.75
2023-02-11T04:51:17.417Z,7.68
2023-02-11T04:53:44.798Z,8.65
2023-02-11T04:56:12.243Z,8.20
2023-02-11T04:58:42.998Z,7.22
2023-02-11T05:01:12.510Z,8.10
2023-02-11T05:03:46.618Z,7.90
2023-02-11T05:06:18.460Z,7.53
2023-02-11T05:08:51.852Z,8.52
2023-02-11T05:14:34.724Z,7.30
2023-02-11T05:17:21.621Z,8.30
2023-02-11T05:19:50.028Z,8.25
2023-02-11T05:22:22.192Z,11.82
2023-02-11T05:24:50.733Z,13.70
2023-02-11T05:27:18.274Z,14.48
2023-02-11T05:29:50.414Z,20.00
2023-02-11T05:32:17.627Z,19.37
2023-02-11T05:34:49.576Z,17.23
2023-02-11T05:37:38.888Z,14.82
2023-02-11T05:40:07.124Z,13.52
2023-02-11T05:42:34.320Z,13.30
2023-02-11T05:45:08.397Z,12.88
2023-02-11T05:47:39.218Z,11.80
2023-02-11T05:50:10.054Z,11.73
2023-02-11T05:52:42.845Z,11.55
2023-02-11T05:55:10.506Z,11.07
2023-02-11T05:57:41.532Z,10.68
2023-02-11T06:00:16.047Z,10.38
2023-02-11T06:02:47.257Z,10.45
2023-02-11T06:05:17.988Z,11.02
2023-02-11T06:07:45.542Z,10.43
2023-02-11T06:10:13.185Z,10.52
2023-02-11T06:12:41.488Z,10.48
2023-02-11T06:15:09.436Z,10.65
2023-02-11T06:17:41.121Z,10.57
2023-02-11T06:20:10.696Z,11.12
2023-02-11T06:22:38.553Z,10.45
2023-02-11T06:25:12.436Z,10.55
2023-02-11T06:27:45.840Z,10.05
2023-02-11T06:30:17.384Z,9.95
2023-02-11T06:32:48.835Z,10.35
2023-02-11T06:35:15.846Z,10.43
2023-02-11T06:37:43.397Z,10.40
2023-02-11T06:40:12.259Z,10.00
2023-02-11T06:42:39.624Z,9.70
2023-02-11T06:45:08.845Z,11.98
2023-02-11T06:47:37.729Z,9.60
2023-02-11T06:50:04.697Z,10.68
2023-02-11T06:52:36.088Z,10.80
2023-02-11T06:55:02.779Z,10.48
2023-02-11T06:57:31.128Z,12.00
2023-02-11T06:59:58.385Z,12.43
2023-02-11T07:02:25.590Z,12.00
2023-02-11T07:04:56.021Z,11.80
2023-02-11T07:07:22.712Z,12.75
2023-02-11T07:09:55.126Z,11.48
2023-02-11T07:12:24.747Z,13.52
2023-02-11T07:14:51.927Z,14.77
2023-02-11T07:17:22.100Z,17.05
2023-02-11T07:19:49.601Z,18.77
2023-02-11T07:22:16.467Z,25.73
2023-02-11T07:24:46.393Z,24.77
2023-02-11T07:27:16.219Z,35.38
2023-02-11T07:29:45.792Z,32.13
2023-02-11T07:32:15.530Z,32.42
2023-02-11T07:34:45.634Z,31.42
2023-02-11T07:37:15.655Z,33.15
2023-02-11T07:39:45.710Z,32.00
2023-02-11T07:42:15.243Z,30.30
2023-02-11T07:44:44.987Z,30.42
2023-02-11T07:49:57.852Z,28.73
2023-02-11T07:52:25.026Z,28.62
2023-02-11T07:57:30.803Z,26.90
2023-02-11T08:00:00.302Z,26.15
2023-02-11T08:02:30.054Z,26.77
2023-02-11T08:05:01.009Z,25.48
2023-02-11T08:07:28.682Z,28.23
2023-02-11T08:10:02.119Z,25.95
2023-02-11T08:12:28.906Z,24.92
2023-02-11T08:14:55.723Z,25.27
2023-02-11T08:17:23.019Z,25.92
2023-02-11T08:19:50.649Z,26.10
2023-02-11T08:22:20.611Z,25.52
2023-02-11T08:24:49.171Z,25.27
2023-02-11T08:27:23.607Z,24.30
2023-02-11T08:29:54.883Z,23.83
2023-02-11T08:32:26.551Z,22.98
2023-02-11T08:34:54.126Z,22.65
2023-02-11T08:37:22.025Z,22.20
2023-02-11T08:39:54.997Z,22.23
2023-02-11T08:42:22.035Z,22.77
2023-02-11T08:44:48.978Z,28.08
2023-02-11T08:47:19.114Z,29.87
2023-02-11T08:49:49.287Z,30.02
2023-02-11T08:52:19.726Z,26.73
2023-02-11T08:54:46.566Z,27.23
2023-02-11T08:57:16.522Z,28.45
2023-02-11T08:59:46.799Z,28.20
2023-02-11T09:02:14.704Z,27.15
2023-02-11T09:04:42.018Z,27.62
2023-02-11T09:07:08.722Z,27.55
2023-02-11T09:09:35.818Z,27.13
2023-02-11T09:12:06.514Z,27.55
2023-02-11T09:14:34.554Z,27.80
2023-02-11T09:17:01.976Z,27.60
2023-02-11T09:19:29.494Z,26.23
2023-02-11T09:22:00.107Z,27.50
2023-02-11T09:24:30.466Z,26.58
2023-02-11T09:27:01.162Z,27.67
2023-02-11T09:29:28.365Z,24.58
2023-02-11T09:31:58.728Z,25.90
2023-02-11T09:34:28.656Z,22.48
2023-02-11T09:36:55.885Z,20.58
2023-02-11T09:39:23.824Z,24.92
2023-02-11T09:42:20.578Z,23.65
2023-02-11T09:44:48.483Z,22.30
2023-02-11T09:50:44.724Z,22.27
2023-02-11T09:53:39.276Z,22.83
2023-02-11T09:56:13.137Z,22.35
2023-02-11T09:58:43.255Z,22.58
2023-02-11T10:01:45.623Z,23.30
2023-02-11T10:13:37.478Z,21.65
2023-02-11T10:16:26.725Z,22.65
2023-02-11T10:19:21.941Z,21.52
2023-02-11T10:22:15.131Z,21.67
2023-02-11T10:24:52.489Z,21.08
2023-02-11T10:27:23.681Z,21.35
2023-02-11T10:30:16.967Z,21.48
2023-02-11T10:33:07.307Z,20.70
2023-02-11T10:35:33.990Z,21.23
2023-02-11T10:38:01.089Z,21.20
2023-02-11T10:40:30.414Z,20.75
2023-02-11T10:43:22.773Z,20.02
2023-02-11T10:45:56.104Z,20.92
2023-02-11T10:48:47.177Z,21.37
2023-02-11T10:51:14.741Z,20.50
2023-02-11T10:53:46.821Z,19.80
2023-02-11T10:56:47.994Z,20.27
2023-02-11T10:59:34.840Z,20.42
2023-02-11T11:02:27.929Z,19.90
2023-02-11T11:05:20.101Z,20.67
2023-02-11T11:08:13.406Z,19.98
2023-02-11T11:10:44.611Z,19.27
2023-02-11T11:13:36.029Z,18.75
2023-02-11T11:16:12.862Z,18.50
2023-02-11T11:18:41.715Z,19.45
2023-02-11T11:21:16.816Z,20.15
2023-02-11T11:23:55.467Z,18.90
2023-02-11T11:26:23.048Z,18.73
2023-02-11T11:28:52.501Z,18.87
2023-02-11T11:31:24.339Z,19.87
2023-02-11T11:33:55.752Z,19.62
2023-02-11T11:36:31.299Z,19.35
2023-02-11T11:39:03.729Z,19.02
2023-02-11T11:41:36.334Z,19.17
2023-02-11T11:44:41.856Z,18.58
2023-02-11T11:47:11.936Z,18.48
2023-02-11T11:49:56.567Z,18.65
2023-02-11T11:52:32.908Z,17.85
2023-02-11T11:55:18.608Z,18.02
2023-02-11T11:57:45.576Z,17.83
2023-02-11T12:00:24.277Z,17.50
2023-02-11T12:03:16.126Z,18.35
2023-02-11T12:05:50.221Z,19.15
2023-02-11T12:08:22.595Z,17.85
2023-02-11T12:11:05.268Z,17.37
2023-02-11T12:13:36.894Z,18.10
2023-02-11T12:16:33.579Z,18.60
2023-02-11T12:19:10.716Z,16.75
2023-02-11T12:21:51.518Z,17.12
2023-02-11T12:24:49.395Z,17.80
2023-02-11T12:27:39.321Z,17.08
2023-02-11T12:30:41.568Z,17.62
2023-02-11T12:33:29.982Z,17.55
2023-02-11T12:36:05.848Z,16.60
2023-02-11T12:38:57.476Z,16.95
2023-02-11T12:41:37.853Z,17.10
2023-02-11T12:44:16.582Z,16.62
2023-02-11T12:47:24.854Z,17.33
2023-02-11T12:50:24.721Z,17.10
2023-02-11T12:53:06.311Z,16.77
2023-02-11T12:55:48.102Z,17.45
2023-02-11T12:58:27.331Z,17.65
2023-02-11T13:01:11.276Z,16.65
2023-02-11T13:03:46.276Z,16.10
2023-02-11T13:06:17.629Z,17.00
2023-02-11T13:08:58.018Z,17.08
2023-02-11T13:11:27.716Z,15.98
2023-02-11T13:14:14.190Z,16.23
2023-02-11T13:16:47.326Z,16.42
2023-02-11T13:19:44.370Z,16.15
2023-02-11T13:22:20.335Z,16.27
2023-02-11T13:25:06.031Z,15.63
2023-02-11T13:28:15.068Z,15.65
2023-02-11T13:30:42.623Z,15.43
2023-02-11T13:33:37.061Z,15.20
2023-02-11T13:36:07.821Z,15.05
2023-02-11T13:38:40.200Z,15.65
2023-02-11T13:41:33.841Z,16.60
2023-02-11T13:44:12.190Z,15.70
2023-02-11T13:46:56.560Z,15.82
2023-02-11T13:49:38.629Z,14.68
2023-02-11T13:52:18.809Z,15.55
2023-02-11T13:54:51.518Z,14.45
2023-02-11T13:57:24.204Z,15.00
2023-02-11T14:00:03.856Z,15.32
2023-02-11T14:02:40.021Z,15.40
2023-02-11T14:05:16.353Z,14.68
2023-02-11T14:08:06.261Z,15.52
2023-02-11T14:11:04.548Z,15.88
2023-02-11T14:13:56.089Z,14.80
2023-02-11T14:16:37.826Z,13.48
2023-02-11T14:19:10.549Z,13.73
2023-02-11T14:21:43.381Z,14.35
2023-02-11T14:24:13.611Z,16.15
2023-02-11T14:27:00.833Z,14.10
2023-02-11T14:29:54.151Z,14.85
2023-02-11T14:32:43.038Z,14.63
2023-02-11T14:35:25.315Z,14.98
2023-02-11T14:38:01.214Z,14.68
2023-02-11T14:40:49.297Z,14.15
2023-02-11T14:43:36.296Z,13.90
2023-02-11T14:46:10.769Z,14.25
2023-02-11T14:48:45.059Z,14.65
2023-02-11T14:51:20.176Z,13.68
2023-02-11T14:53:50.910Z,14.27
2023-02-11T14:56:29.185Z,14.87
2023-02-11T14:58:59.827Z,14.73
2023-02-11T15:01:41.152Z,14.20
2023-02-11T15:04:26.644Z,13.98
2023-02-11T15:06:55.926Z,14.98
2023-02-11T15:09:40.644Z,13.82
2023-02-11T15:12:27.056Z,13.38
2023-02-11T15:14:56.819Z,13.93
2023-02-11T15:17:26.247Z,14.87
2023-02-11T15:20:00.382Z,14.68
2023-02-11T15:22:36.088Z,13.48
2023-02-11T15:25:14.638Z,13.62
2023-02-11T15:27:47.879Z,13.90
2023-02-11T15:30:24.047Z,14.50
2023-02-11T15:32:59.226Z,14.13
2023-02-11T15:35:39.520Z,14.52
2023-02-11T15:38:11.153Z,13.90
2023-02-11T15:40:52.157Z,14.38
2023-02-11T15:43:40.150Z,14.20
2023-02-11T15:46:14.176Z,12.18
2023-02-11T15:48:48.314Z,12.73
2023-02-11T15:51:21.450Z,13.10
2023-02-11T15:56:22.629Z,12.25
2023-02-11T16:01:17.016Z,13.30
2023-02-11T16:03:50.191Z,12.27
2023-02-11T16:09:21.198Z,12.85
2023-02-11T16:11:50.504Z,12.68
2023-02-11T16:14:27.964Z,13.32
2023-02-11T16:17:35.382Z,12.93
2023-02-11T16:20:02.346Z,13.02
2023-02-11T16:22:31.787Z,13.55
2023-02-11T16:25:02.528Z,12.93
2023-02-11T16:27:34.621Z,14.18
2023-02-11T16:30:01.672Z,13.93
2023-02-11T16:32:35.760Z,13.13
2023-02-11T16:35:11.472Z,12.90
2023-02-11T16:37:42.670Z,14.18
2023-02-11T16:40:13.505Z,15.43
2023-02-11T16:42:43.265Z,14.43
2023-02-11T16:45:18.216Z,16.45
2023-02-11T16:48:32.860Z,18.70
2023-02-11T16:51:00.186Z,18.10
2023-02-11T16:56:47.211Z,16.15
2023-02-11T16:59:16.318Z,16.80
2023-02-11T17:01:44.573Z,18.00
2023-02-11T17:04:31.759Z,16.40
2023-02-11T17:07:37.233Z,17.37
2023-02-11T17:10:08.400Z,17.90
2023-02-11T17:12:36.004Z,16.60
2023-02-11T17:15:19.092Z,17.02
2023-02-11T17:17:55.557Z,17.27
2023-02-11T17:20:22.957Z,16.15
2023-02-11T17:23:00.406Z,16.42
2023-02-11T17:25:32.307Z,15.80
2023-02-11T17:28:06.583Z,14.57
2023-02-11T17:30:40.842Z,16.12
2023-02-11T17:33:23.081Z,14.40
2023-02-11T17:36:19.001Z,14.82
2023-02-11T17:38:47.151Z,14.48
2023-02-11T17:44:50.817Z,14.00
2023-02-11T17:47:31.840Z,14.02
2023-02-11T17:53:45.390Z,11.85
2023-02-11T17:56:15.585Z,11.73
2023-02-11T17:58:46.362Z,13.07
2023-02-11T18:01:20.004Z,12.45
2023-02-11T18:03:49.900Z,12.45
2023-02-11T18:06:54.312Z,11.43
2023-02-11T18:09:22.562Z,12.60
2023-02-11T18:11:50.290Z,12.25
2023-02-11T18:14:21.536Z,12.77
2023-02-11T18:16:55.350Z,12.90
2023-02-11T18:19:22.447Z,12.35
2023-02-11T18:21:49.305Z,12.18
2023-02-11T18:24:21.213Z,11.63
2023-02-11T18:26:50.405Z,11.65
2023-02-11T18:29:17.942Z,11.55
2023-02-11T18:31:48.457Z,11.50
2023-02-11T18:34:20.100Z,11.27
2023-02-11T18:36:47.039Z,11.23
2023-02-11T18:39:13.906Z,11.25
2023-02-11T18:41:43.974Z,10.60
2023-02-11T18:44:12.529Z,11.05
2023-02-11T18:46:45.624Z,10.90
2023-02-11T18:51:46.205Z,10.98
2023-02-11T18:54:13.577Z,9.88
2023-02-11T18:56:42.826Z,10.10
2023-02-11T19:02:31.645Z,11.60
2023-02-11T19:05:01.134Z,10.65
2023-02-11T19:07:34.706Z,11.25
2023-02-11T19:10:13.059Z,10.15
2023-02-11T19:12:42.595Z,10.38
2023-02-11T19:15:12.560Z,11.82
2023-02-11T19:17:50.714Z,11.85
2023-02-11T19:21:02.830Z,11.55
2023-02-11T19:23:32.172Z,11.85
2023-02-11T19:26:03.996Z,11.07
2023-02-11T19:38:58.316Z,10.57
2023-02-11T19:41:45.274Z,10.85
2023-02-11T19:50:38.230Z,11.38
2023-02-11T19:53:27.126Z,10.32
2023-02-11T19:55:56.010Z,10.65
2023-02-11T19:58:28.137Z,11.35
2023-02-11T20:04:12.324Z,10.95
2023-02-11T20:07:01.152Z,10.90
2023-02-11T20:20:05.564Z,10.23
2023-02-11T20:26:01.066Z,10.88
2023-02-11T20:44:18.016Z,9.93
2023-02-11T20:56:27.710Z,10.30
2023-02-11T20:59:36.673Z,10.40
2023-02-11T21:06:03.717Z,10.23
2023-02-11T21:08:51.049Z,9.50
2023-02-11T21:11:40.297Z,9.63
2023-02-11T21:24:41.249Z,9.43
2023-02-11T21:27:47.686Z,9.70
2023-02-11T21:30:54.259Z,9.57
2023-02-11T21:33:52.828Z,9.23
2023-02-11T21:37:00.979Z,8.35
2023-02-11T21:39:37.736Z,9.13
2023-02-11T21:42:09.652Z,8.70
2023-02-11T21:44:38.536Z,8.75
2023-02-11T21:54:13.752Z,8.20
2023-02-11T21:56:44.964Z,8.60
2023-02-11T22:02:45.062Z,8.07
2023-02-11T22:05:33.979Z,8.27
2023-02-11T22:08:43.070Z,8.95
2023-02-11T22:14:50.734Z,7.78
2023-02-11T22:21:17.788Z,7.47
2023-02-11T22:24:23.656Z,7.55
2023-02-11T22:27:36.110Z,7.87
2023-02-11T22:33:32.198Z,7.80
2023-02-11T22:39:59.999Z,7.32
2023-02-11T22:49:02.715Z,6.80
2023-02-11T22:51:35.828Z,7.37
2023-02-11T22:54:45.130Z,7.62
2023-02-11T23:04:26.739Z,6.90
2023-02-11T23:16:42.101Z,6.75
2023-02-11T23:22:49.520Z,6.53
2023-02-11T23:32:17.063Z,6.97
2023-02-11T23:42:05.454Z,5.62
2023-02-11T23:44:41.165Z,5.85
2023-02-11T23:47:46.779Z,5.78
2023-02-11T23:50:35.907Z,5.47
2023-02-11T23:53:48.353Z,6.22
2023-02-11T23:56:38.024Z,5.80
